< Typhoon 196806 1968 Season Typhoon 196808 >
Typhoon 196807 (POLLY)
General InformationTrack Information on Google Maps || Disaster Info.ResourceGoogle EarthGE AnimationAtom FeedGeoJSON
Detalied Best Track (Time Zone = UTC)
Year Month Day Hour Lat. Long. Pressure (hPa) Wind (kt) Class Image Chart
1968 8 3 12 17.2 163.0 1006 0 2 -- Chart
1968 8 3 18 17.3 161.0 1006 0 2 -- Chart
1968 8 4 00 17.6 160.0 1006 0 2 -- Chart
1968 8 4 06 18.0 159.2 1006 0 2 -- Chart
1968 8 4 12 18.9 158.5 1006 0 2 -- Chart
1968 8 4 18 19.7 158.0 1000 0 2 -- Chart
1968 8 5 00 20.5 157.6 995 0 2 -- Chart
1968 8 5 06 21.7 157.4 995 0 2 -- Chart
1968 8 5 12 22.7 157.4 995 0 2 -- Chart
1968 8 5 18 23.6 157.2 995 0 2 -- Chart
1968 8 6 00 23.9 156.3 995 0 2 -- Chart
1968 8 6 06 23.9 156.2 995 0 2 -- Chart
1968 8 6 12 24.1 155.9 996 0 2 -- Chart
1968 8 6 18 24.4 155.7 990 0 2 -- Chart
1968 8 7 00 24.2 155.6 980 0 9 -- Chart
1968 8 7 06 24.4 155.3 980 0 9 -- Chart
1968 8 7 12 24.6 154.6 980 0 9 -- Chart
1968 8 7 18 24.8 153.6 975 0 9 -- Chart
1968 8 8 00 25.1 152.6 975 0 9 -- Chart
1968 8 8 06 25.1 151.2 975 0 9 -- Chart
1968 8 8 12 25.6 149.9 975 0 9 -- Chart
1968 8 8 18 26.6 148.6 975 0 9 -- Chart
1968 8 9 00 27.3 147.1 975 0 9 -- Chart
1968 8 9 06 28.0 145.5 975 0 9 -- Chart
1968 8 9 12 29.1 143.8 975 0 9 -- Chart
1968 8 9 18 30.4 142.0 975 0 9 -- Chart
1968 8 10 00 31.3 140.3 975 0 9 -- Chart
1968 8 10 06 32.0 138.8 975 0 9 -- Chart
1968 8 10 12 32.4 137.6 975 0 9 -- Chart
1968 8 10 18 32.4 136.6 980 0 9 -- Chart
1968 8 11 00 32.3 135.6 980 0 9 -- Chart
1968 8 11 06 31.7 134.7 980 0 9 -- Chart
1968 8 11 12 31.3 134.0 980 0 9 -- Chart
1968 8 11 18 30.6 133.3 980 0 9 -- Chart
1968 8 12 00 30.0 132.5 980 0 9 -- Chart
1968 8 12 06 29.4 131.5 985 0 9 -- Chart
1968 8 12 12 29.3 130.3 985 0 9 -- Chart
1968 8 12 18 28.8 129.0 985 0 9 -- Chart
1968 8 13 00 28.2 128.3 985 0 9 -- Chart
1968 8 13 06 28.2 127.1 985 0 9 -- Chart
1968 8 13 12 28.4 126.1 980 0 9 -- Chart
1968 8 13 18 28.4 125.4 975 0 9 -- Chart
1968 8 14 00 28.0 124.6 970 0 9 -- Chart
1968 8 14 06 27.7 124.4 970 0 9 -- Chart
1968 8 14 12 27.7 123.7 965 0 9 -- Chart
1968 8 14 18 27.9 124.1 965 0 9 -- Chart
1968 8 15 00 28.4 124.4 970 0 9 -- Chart
1968 8 15 06 28.6 124.4 970 0 9 -- Chart
1968 8 15 12 29.3 125.4 975 0 9 -- Chart
1968 8 15 18 30.6 126.4 975 0 9 -- Chart
1968 8 16 00 32.3 127.3 975 0 9 -- Chart
1968 8 16 06 34.6 129.3 970 0 9 -- Chart
1968 8 16 12 37.0 131.4 975 0 9 -- Chart
1968 8 16 18 39.0 132.8 980 0 9 -- Chart
1968 8 17 00 42.3 135.0 985 0 9 -- Chart
1968 8 17 06 43.7 135.6 988 0 9 -- Chart
1968 8 17 12 45.4 135.8 994 0 6 -- Chart
1968 8 17 18 46.8 135.2 998 0 6 -- Chart
1968 8 18 00 47.3 134.5 1000 0 6 -- Chart
Japan Meteorological Agency Best Track Data | Correction Date : 1989-06-01
< Typhoon 196806 1968 Season Typhoon 196808 >

Help